.
WxDataArchive / Data Records for 2006-11-21
2006-11-20 November 2006 2006-11-22

Data Records for Tuesday, 21 November 2006

Time	Temp	Chill	HIndex	Humid	Dewpt	 Wind 	HiWind	WindDir	Rain 	Barom 
-----	----	-----	------	-----	-----	------	------	-------	-----	----- 
00:00	27.2	27.2	27.2	85	23.3	0	0	---	0.00	30.408 
00:05	27.0	27.0	27.0	85	23.1	0	0	---	0.00	30.408 
00:10	26.9	26.9	26.9	85	23.0	0	0	---	0.00	30.408 
00:15	26.9	26.9	26.9	86	23.3	0	0	---	0.00	30.408 
00:20	26.7	26.7	26.7	86	23.1	0	0	---	0.00	30.408 
00:25	26.6	26.6	26.6	85	22.7	0	0	---	0.00	30.408 
00:30	26.6	26.6	26.6	85	22.7	0	0	---	0.00	30.413 
00:35	26.4	26.4	26.4	86	22.8	0	1	292	0.00	30.413 
00:40	26.4	26.4	26.4	86	22.8	0	0	---	0.00	30.413 
00:45	26.3	26.3	26.3	86	22.7	0	0	---	0.00	30.405 
00:50	26.1	26.1	26.1	86	22.5	0	0	---	0.00	30.405 
00:55	26.1	26.1	26.1	86	22.5	0	0	---	0.00	30.405 
01:00	26.0	26.0	26.0	86	22.4	0	0	---	0.00	30.398 
01:05	25.8	25.8	25.8	87	22.5	0	0	---	0.00	30.398 
01:10	25.8	25.8	25.8	87	22.5	0	0	---	0.00	30.398 
01:15	25.7	25.7	25.7	87	22.4	0	0	---	0.00	30.403 
01:20	25.7	25.7	25.7	87	22.4	0	0	---	0.00	30.403 
01:25	25.6	25.6	25.6	87	22.3	0	0	---	0.00	30.403 
01:30	25.4	25.4	25.4	87	22.1	0	0	---	0.00	30.401 
01:35	25.4	25.4	25.4	88	22.4	0	0	---	0.00	30.401 
01:40	25.3	25.3	25.3	88	22.3	0	0	---	0.00	30.401 
01:45	25.1	25.1	25.1	87	21.8	0	0	---	0.00	30.394 
01:50	25.0	25.0	25.0	88	22.0	0	0	---	0.00	30.394 
01:55	25.0	25.0	25.0	88	22.0	0	0	---	0.00	30.394 
02:00	24.8	24.8	24.8	88	21.8	0	0	---	0.00	30.401 
02:05	24.7	24.7	24.7	88	21.7	0	0	---	0.00	30.401 
02:10	24.5	24.5	24.5	88	21.5	0	0	---	0.00	30.401 
02:15	24.4	24.4	24.4	88	21.4	0	0	---	0.00	30.404 
02:20	24.2	24.2	24.2	88	21.2	0	0	---	0.00	30.404 
02:25	24.1	24.1	24.1	88	21.1	0	0	---	0.00	30.404 
02:30	24.1	24.1	24.1	89	21.3	0	0	---	0.00	30.408 
02:35	24.1	24.1	24.1	89	21.3	0	0	---	0.00	30.408 
02:40	24.1	24.1	24.1	89	21.3	0	0	---	0.00	30.408 
02:45	23.9	23.9	23.9	89	21.1	0	0	---	0.00	30.410 
02:50	23.9	23.9	23.9	89	21.1	0	0	---	0.00	30.410 
02:55	23.8	23.8	23.8	89	21.0	0	0	---	0.00	30.410 
03:00	23.6	23.6	23.6	89	20.8	0	0	---	0.00	30.408 
03:05	23.6	23.6	23.6	89	20.8	0	0	---	0.00	30.408 
03:10	23.6	23.6	23.6	90	21.1	0	0	---	0.00	30.408 
03:15	23.8	23.8	23.8	90	21.3	0	0	---	0.00	30.406 
03:20	23.6	23.6	23.6	90	21.1	0	0	---	0.00	30.406 
03:25	23.5	23.5	23.5	90	21.0	0	0	---	0.00	30.406 
03:30	23.5	23.5	23.5	90	21.0	0	0	---	0.00	30.410 
03:35	23.3	23.3	23.3	90	20.8	0	0	---	0.00	30.410 
03:40	23.3	23.3	23.3	90	20.8	0	0	---	0.00	30.410 
03:45	23.2	23.2	23.2	90	20.7	0	0	---	0.00	30.408 
03:50	23.2	23.2	23.2	90	20.7	0	0	---	0.00	30.408 
03:55	23.2	23.2	23.2	90	20.7	0	0	---	0.00	30.408 
04:00	23.2	23.2	23.2	90	20.7	0	0	---	0.00	30.410 
04:05	23.0	23.0	23.0	90	20.5	0	0	---	0.00	30.410 
04:10	23.0	23.0	23.0	90	20.5	0	0	---	0.00	30.410 
04:15	23.0	23.0	23.0	90	20.5	0	0	---	0.00	30.416 
04:20	22.9	22.9	22.9	90	20.4	0	0	---	0.00	30.416 
04:25	22.9	22.9	22.9	91	20.7	0	0	---	0.00	30.416 
04:30	22.9	22.9	22.9	91	20.7	0	0	---	0.00	30.410 
04:35	22.7	22.7	22.7	91	20.5	0	0	---	0.00	30.410 
04:40	22.7	22.7	22.7	91	20.5	0	0	---	0.00	30.410 
04:45	22.5	22.5	22.5	91	20.3	0	0	---	0.00	30.410 
04:50	22.5	22.5	22.5	91	20.3	0	0	---	0.00	30.410 
04:55	22.4	22.4	22.4	91	20.2	0	0	---	0.00	30.410 
05:00	22.2	22.2	22.2	91	20.0	0	0	---	0.00	30.416 
05:05	22.2	22.2	22.2	91	20.0	0	0	---	0.00	30.416 
05:10	22.2	22.2	22.2	91	20.0	0	0	---	0.00	30.416 
05:15	22.2	22.2	22.2	91	20.0	0	0	---	0.00	30.415 
05:20	22.2	22.2	22.2	91	20.0	0	0	---	0.00	30.415 
05:25	22.2	22.2	22.2	91	20.0	0	0	---	0.00	30.415 
05:30	22.2	22.2	22.2	91	20.0	0	0	---	0.00	30.416 
05:35	22.2	22.2	22.2	91	20.0	0	0	---	0.00	30.416 
05:40	22.4	22.4	22.4	91	20.2	0	0	---	0.00	30.416 
05:45	22.4	22.4	22.4	91	20.2	0	0	---	0.00	30.409 
05:50	22.4	22.4	22.4	91	20.2	0	0	---	0.00	30.409 
05:55	22.4	22.4	22.4	91	20.2	0	0	---	0.00	30.409 
06:00	22.4	22.4	22.4	91	20.2	0	0	---	0.00	30.412 
06:05	22.2	22.2	22.2	91	20.0	0	0	---	0.00	30.412 
06:10	22.2	22.2	22.2	91	20.0	0	0	---	0.00	30.412 
06:15	22.1	22.1	22.1	91	19.9	0	0	---	0.00	30.416 
06:20	21.9	21.9	21.9	91	19.7	0	0	---	0.00	30.416 
06:25	21.8	21.8	21.8	91	19.6	0	0	---	0.00	30.416 
06:30	21.8	21.8	21.8	91	19.6	0	0	---	0.00	30.417 
06:35	21.6	21.6	21.6	91	19.4	0	0	---	0.00	30.417 
06:40	21.6	21.6	21.6	91	19.4	0	0	---	0.00	30.417 
06:45	21.6	21.6	21.6	91	19.4	0	0	---	0.00	30.420 
06:50	21.6	21.6	21.6	91	19.4	0	0	---	0.00	30.420 
06:55	21.4	21.4	21.4	91	19.2	0	0	---	0.00	30.420 
07:00	21.4	21.4	21.4	91	19.2	0	0	---	0.00	30.419 
07:05	21.4	21.4	21.4	91	19.2	0	0	---	0.00	30.419 
07:10	21.6	21.6	21.6	91	19.4	0	0	---	0.00	30.419 
07:15	21.6	21.6	21.6	91	19.4	0	0	---	0.00	30.428 
07:20	21.6	21.6	21.6	91	19.4	0	0	---	0.00	30.428 
07:25	21.8	21.8	21.8	91	19.6	0	0	---	0.00	30.428 
07:30	21.6	21.6	21.6	91	19.4	0	0	---	0.00	30.429 
07:35	21.6	21.6	21.6	91	19.4	0	0	---	0.00	30.429 
07:40	21.6	21.6	21.6	91	19.4	0	0	---	0.00	30.429 
07:45	21.6	21.6	21.6	91	19.4	0	0	---	0.00	30.437 
07:50	21.8	21.8	21.8	91	19.6	0	0	---	0.00	30.437 
07:55	21.9	21.9	21.9	92	19.9	0	0	---	0.00	30.437 
08:00	22.1	22.1	22.1	92	20.1	0	0	---	0.00	30.455 
08:05	22.2	22.2	22.2	92	20.2	0	0	---	0.00	30.455 
08:10	22.5	22.5	22.5	92	20.5	0	0	---	0.00	30.455 
08:15	23.3	23.3	23.3	93	21.6	0	0	---	0.00	30.459 
08:20	23.8	23.8	23.8	93	22.1	0	0	---	0.00	30.459 
08:25	24.2	24.2	24.2	93	22.5	0	0	---	0.00	30.459 
08:30	24.5	24.5	24.5	92	22.5	0	0	---	0.00	30.467 
08:35	24.8	24.8	24.8	93	23.1	0	0	---	0.00	30.467 
08:40	25.6	25.6	25.6	93	23.9	0	0	---	0.00	30.467 
08:45	26.3	26.3	26.3	93	24.6	0	0	---	0.00	30.473 
08:50	27.2	27.2	27.2	94	25.7	0	1	292	0.00	30.473 
08:55	28.1	28.1	28.1	94	26.6	0	1	292	0.00	30.473 
09:00	28.8	28.8	28.8	94	27.3	0	2	292	0.00	30.476 
09:05	29.7	29.7	29.7	94	28.2	1	3	248	0.00	30.476 
09:10	30.6	30.6	30.6	93	28.8	1	3	248	0.00	30.476 
09:15	31.6	31.6	31.6	92	29.5	0	2	248	0.00	30.474 
09:20	32.5	32.5	32.5	88	29.3	0	2	248	0.01	30.474 
09:25	33.5	33.5	33.5	85	29.5	0	2	248	0.00	30.474 
09:30	34.1	34.1	34.1	81	28.9	1	3	270	0.00	30.472 
09:35	34.6	34.6	34.6	80	29.1	0	1	270	0.00	30.472 
09:40	34.9	34.9	34.9	81	29.7	0	2	270	0.00	30.472 
09:45	35.2	35.2	35.2	79	29.4	0	1	270	0.00	30.477 
09:50	35.6	35.6	35.6	78	29.4	0	1	270	0.00	30.477 
09:55	35.8	35.8	35.8	76	29.0	0	1	270	0.00	30.477 
10:00	35.9	35.9	35.9	75	28.8	1	3	270	0.00	30.475 
10:05	36.2	36.2	36.2	73	28.4	1	3	112	0.00	30.475 
10:10	36.6	36.6	36.6	73	28.8	1	4	112	0.00	30.475 
10:15	36.9	36.9	36.9	72	28.7	1	4	112	0.00	30.476 
10:20	37.3	37.3	37.3	73	29.5	1	2	225	0.00	30.476 
10:25	37.6	37.6	37.6	69	28.4	1	4	90	0.00	30.476 
10:30	37.9	37.9	37.9	71	29.4	1	4	90	0.00	30.476 
10:35	38.5	38.5	38.5	70	29.6	1	4	112	0.00	30.476 
10:40	38.9	38.9	38.9	68	29.3	1	6	248	0.00	30.476 
10:45	39.2	39.2	39.2	65	28.4	2	5	90	0.00	30.468 
10:50	39.8	39.8	39.8	65	29.0	2	7	90	0.00	30.468 
10:55	40.1	40.1	40.1	65	29.3	2	7	112	0.00	30.468 
11:00	40.3	40.3	40.3	64	29.1	2	7	90	0.00	30.466 
11:05	40.3	40.3	40.3	66	29.9	2	6	90	0.00	30.466 
11:10	40.2	40.2	40.2	65	29.4	1	4	248	0.00	30.466 
11:15	40.2	40.2	40.2	65	29.4	1	4	248	0.00	30.472 
11:20	40.5	40.5	40.5	65	29.7	1	4	248	0.00	30.472 
11:25	40.6	40.6	40.6	65	29.8	1	5	112	0.00	30.472 
11:30	40.6	40.6	40.6	63	29.0	2	7	248	0.00	30.470 
11:35	40.8	40.8	40.8	64	29.6	1	5	248	0.00	30.470 
11:40	40.9	40.9	40.9	63	29.3	2	6	90	0.00	30.470 
11:45	41.1	41.1	41.1	63	29.5	2	9	248	0.00	30.466 
11:50	41.3	41.3	41.3	63	29.7	2	7	90	0.00	30.466 
11:55	41.8	41.8	41.8	63	30.1	2	5	90	0.00	30.466 
12:00	42.1	42.1	42.1	64	30.8	2	4	0	0.00	30.454 
12:05	42.3	42.3	42.3	60	29.4	2	9	248	0.00	30.454 
12:10	42.3	42.3	42.3	63	30.6	2	5	248	0.00	30.454 
12:15	42.5	42.5	42.5	60	29.6	3	6	112	0.00	30.448 
12:20	42.5	42.5	42.5	62	30.4	2	6	248	0.00	30.448 
12:25	42.5	42.5	42.5	60	29.6	2	5	158	0.00	30.448 
12:30	42.3	42.3	42.3	63	30.6	1	5	90	0.00	30.435 
12:35	42.1	42.1	42.1	61	29.6	2	4	112	0.00	30.435 
12:40	41.9	41.9	41.9	62	29.8	1	4	45	0.00	30.435 
12:45	41.8	41.8	41.8	63	30.1	2	7	248	0.00	30.432 
12:50	41.8	41.8	41.8	63	30.1	1	5	22	0.00	30.432 
12:55	41.8	41.8	41.8	62	29.7	2	4	248	0.00	30.432 
13:00	41.9	41.9	41.9	62	29.8	2	4	248	0.00	30.441 
13:05	42.2	42.2	42.2	62	30.1	1	6	248	0.00	30.441 
13:10	42.3	42.3	42.3	62	30.2	1	3	248	0.00	30.441 
13:15	42.6	42.6	42.6	62	30.5	1	4	248	0.00	30.433 
13:20	43.1	43.1	43.1	62	31.0	1	4	248	0.00	30.433 
13:25	43.2	43.2	43.2	62	31.1	1	4	248	0.00	30.433 
13:30	43.2	43.2	43.2	59	29.9	2	6	248	0.00	30.434 
13:35	42.8	42.8	42.8	60	29.9	2	5	248	0.00	30.434 
13:40	42.6	42.6	42.6	60	29.7	2	4	248	0.00	30.434 
13:45	42.5	42.5	42.5	60	29.6	0	2	270	0.00	30.427 
13:50	42.8	42.8	42.8	61	30.3	1	3	248	0.00	30.427 
13:55	42.8	42.8	42.8	61	30.3	1	3	248	0.00	30.427 
14:00	43.1	43.1	43.1	62	31.0	1	3	90	0.00	30.428 
14:05	43.1	43.1	43.1	62	31.0	1	3	248	0.00	30.428 
14:10	43.1	43.1	43.1	60	30.2	1	3	112	0.00	30.428 
14:15	43.2	43.2	43.2	59	29.9	1	4	112	0.00	30.426 
14:20	43.3	43.3	43.3	61	30.8	1	3	90	0.00	30.426 
14:25	43.8	43.8	43.8	62	31.6	1	4	248	0.00	30.426 
14:30	44.1	44.1	44.1	60	31.1	1	4	248	0.00	30.420 
14:35	43.9	43.9	43.9	61	31.3	1	6	90	0.00	30.420 
14:40	43.6	43.6	43.6	61	31.0	1	3	90	0.00	30.420 
14:45	43.3	43.3	43.3	62	31.2	1	4	270	0.00	30.414 
14:50	43.2	43.2	43.2	61	30.7	1	3	270	0.00	30.414 
14:55	43.1	43.1	43.1	62	31.0	1	2	270	0.00	30.414 
15:00	43.1	43.1	43.1	61	30.6	1	3	90	0.00	30.414 
15:05	42.9	42.9	42.9	62	30.8	1	5	248	0.00	30.414 
15:10	42.8	42.8	42.8	62	30.7	0	1	248	0.00	30.414 
15:15	42.6	42.6	42.6	62	30.5	1	3	112	0.00	30.405 
15:20	42.5	42.5	42.5	62	30.4	0	2	112	0.00	30.405 
15:25	42.5	42.5	42.5	62	30.4	0	2	112	0.00	30.405 
15:30	42.5	42.5	42.5	63	30.8	0	2	112	0.00	30.406 
15:35	42.3	42.3	42.3	63	30.6	0	2	112	0.00	30.406 
15:40	42.2	42.2	42.2	64	30.9	0	1	112	0.00	30.406 
15:45	42.2	42.2	42.2	63	30.5	0	2	112	0.00	30.414 
15:50	42.5	42.5	42.5	62	30.4	1	3	90	0.00	30.414 
15:55	42.8	42.8	42.8	64	31.5	0	2	90	0.00	30.414 
16:00	43.1	43.1	43.1	64	31.8	0	2	90	0.00	30.405 
16:05	43.2	43.2	43.2	62	31.1	0	2	90	0.00	30.405 
16:10	43.1	43.1	43.1	62	31.0	1	3	90	0.00	30.405 
16:15	42.9	42.9	42.9	62	30.8	1	2	112	0.00	30.400 
16:20	42.8	42.8	42.8	63	31.1	0	1	112	0.00	30.400 
16:25	42.6	42.6	42.6	63	30.9	0	2	112	0.00	30.400 
16:30	42.6	42.6	42.6	63	30.9	1	3	112	0.00	30.406 
16:35	42.5	42.5	42.5	63	30.8	0	1	112	0.00	30.406 
16:40	42.5	42.5	42.5	63	30.8	0	2	112	0.00	30.406 
16:45	42.3	42.3	42.3	63	30.6	0	1	112	0.00	30.407 
16:50	42.2	42.2	42.2	64	30.9	0	1	112	0.00	30.407 
16:55	42.1	42.1	42.1	63	30.4	0	3	112	0.00	30.407 
17:00	41.8	41.8	41.8	64	30.5	0	1	112	0.00	30.401 
17:05	41.6	41.6	41.6	64	30.3	0	1	112	0.00	30.401 
17:10	41.3	41.3	41.3	65	30.4	0	1	112	0.00	30.401 
17:15	40.9	40.9	40.9	65	30.1	0	1	112	0.00	30.396 
17:20	40.6	40.6	40.6	66	30.1	0	0	---	0.00	30.396 
17:25	40.2	40.2	40.2	67	30.1	0	1	112	0.00	30.396 
17:30	39.8	39.8	39.8	68	30.1	0	0	---	0.00	30.398 
17:35	39.5	39.5	39.5	69	30.2	0	1	112	0.00	30.398 
17:40	38.9	38.9	38.9	70	30.0	0	1	112	0.00	30.398 
17:45	38.6	38.6	38.6	71	30.0	0	1	112	0.00	30.396 
17:50	38.3	38.3	38.3	71	29.7	0	1	112	0.00	30.396 
17:55	38.0	38.0	38.0	72	29.8	0	0	---	0.00	30.396 
18:00	37.8	37.8	37.8	72	29.6	0	0	---	0.00	30.396 
18:05	37.3	37.3	37.3	73	29.5	0	0	---	0.00	30.396 
18:10	37.0	37.0	37.0	74	29.5	0	0	---	0.00	30.396 
18:15	36.6	36.6	36.6	74	29.1	0	0	---	0.00	30.395 
18:20	36.3	36.3	36.3	75	29.1	0	0	---	0.00	30.395 
18:25	35.9	35.9	35.9	76	29.1	0	0	---	0.00	30.395 
18:30	35.5	35.5	35.5	76	28.7	0	0	---	0.00	30.398 
18:35	35.2	35.2	35.2	77	28.7	0	0	---	0.00	30.398 
18:40	34.7	34.7	34.7	77	28.2	0	0	---	0.00	30.398 
18:45	34.3	34.3	34.3	78	28.2	0	0	---	0.00	30.396 
18:50	34.0	34.0	34.0	79	28.2	0	0	---	0.00	30.396 
18:55	33.5	33.5	33.5	80	28.0	0	0	---	0.00	30.396 
19:00	33.2	33.2	33.2	80	27.7	0	0	---	0.00	30.397 
19:05	32.9	32.9	32.9	80	27.4	0	0	---	0.00	30.397 
19:10	32.5	32.5	32.5	81	27.3	0	0	---	0.00	30.397 
19:15	32.4	32.4	32.4	83	27.8	0	0	---	0.00	30.402 
19:20	32.1	32.1	32.1	84	27.8	0	0	---	0.00	30.402 
19:25	31.9	31.9	31.9	84	27.6	0	0	---	0.00	30.402 
19:30	31.6	31.6	31.6	84	27.3	0	0	---	0.00	30.401 
19:35	31.5	31.5	31.5	85	27.5	0	0	---	0.00	30.401 
19:40	31.5	31.5	31.5	85	27.5	0	1	112	0.00	30.401 
19:45	31.5	31.5	31.5	85	27.5	0	0	---	0.00	30.400 
19:50	31.6	31.6	31.6	85	27.6	0	1	112	0.00	30.400 
19:55	31.8	31.8	31.8	84	27.5	0	0	---	0.00	30.400 
20:00	31.6	31.6	31.6	84	27.3	0	0	---	0.00	30.400 
20:05	31.5	31.5	31.5	84	27.2	0	0	---	0.00	30.400 
20:10	31.3	31.3	31.3	84	27.0	0	0	---	0.00	30.400 
20:15	31.0	31.0	31.0	85	27.0	0	0	---	0.00	30.396 
20:20	30.9	30.9	30.9	85	26.9	0	0	---	0.00	30.396 
20:25	30.9	30.9	30.9	86	27.2	0	0	---	0.00	30.396 
20:30	30.7	30.7	30.7	86	27.0	0	1	112	0.00	30.395 
20:35	30.7	30.7	30.7	86	27.0	0	0	---	0.00	30.395 
20:40	30.7	30.7	30.7	86	27.0	0	0	---	0.00	30.395 
20:45	30.9	30.9	30.9	87	27.5	0	1	112	0.00	30.394 
20:50	31.0	31.0	31.0	86	27.3	0	0	---	0.00	30.394 
20:55	31.2	31.2	31.2	86	27.5	0	0	---	0.00	30.394 
21:00	31.2	31.2	31.2	86	27.5	0	0	---	0.00	30.395 
21:05	31.0	31.0	31.0	86	27.3	0	0	---	0.00	30.395 
21:10	31.2	31.2	31.2	86	27.5	0	1	112	0.00	30.395 
21:15	31.5	31.5	31.5	85	27.5	0	0	---	0.00	30.388 
21:20	31.6	31.6	31.6	84	27.3	0	0	---	0.00	30.388 
21:25	31.8	31.8	31.8	84	27.5	0	1	112	0.00	30.388 
21:30	32.1	32.1	32.1	83	27.5	0	1	112	0.00	30.388 
21:35	32.2	32.2	32.2	82	27.3	0	1	112	0.00	30.388 
21:40	32.4	32.4	32.4	82	27.5	0	1	112	0.00	30.388 
21:45	32.5	32.5	32.5	81	27.3	0	1	112	0.00	30.383 
21:50	32.5	32.5	32.5	81	27.3	0	0	---	0.00	30.383 
21:55	32.4	32.4	32.4	81	27.2	0	0	---	0.00	30.383 
22:00	32.2	32.2	32.2	81	27.0	0	1	112	0.00	30.381 
22:05	32.4	32.4	32.4	81	27.2	0	2	112	0.00	30.381 
22:10	32.4	32.4	32.4	81	27.2	0	1	112	0.00	30.381 
22:15	32.5	32.5	32.5	81	27.3	0	1	112	0.00	30.378 
22:20	32.5	32.5	32.5	80	27.0	0	1	112	0.00	30.378 
22:25	32.5	32.5	32.5	80	27.0	0	1	112	0.00	30.378 
22:30	32.5	32.5	32.5	80	27.0	0	1	112	0.00	30.373 
22:35	32.4	32.4	32.4	80	26.9	0	1	112	0.00	30.373 
22:40	32.4	32.4	32.4	80	26.9	0	1	112	0.00	30.373 
22:45	32.2	32.2	32.2	80	26.7	0	1	112	0.00	30.368 
22:50	32.2	32.2	32.2	80	26.7	0	1	112	0.00	30.368 
22:55	32.1	32.1	32.1	80	26.6	0	1	112	0.00	30.368 
23:00	32.1	32.1	32.1	80	26.6	0	1	112	0.00	30.367 
23:05	32.1	32.1	32.1	80	26.6	0	1	112	0.00	30.367 
23:10	31.9	31.9	31.9	80	26.4	0	0	---	0.00	30.367 
23:15	31.6	31.6	31.6	80	26.2	0	0	---	0.00	30.366 
23:20	31.2	31.2	31.2	80	25.8	0	0	---	0.00	30.366 
23:25	30.7	30.7	30.7	81	25.6	0	0	---	0.00	30.366 
23:30	30.4	30.4	30.4	81	25.3	0	0	---	0.00	30.368 
23:35	30.0	30.0	30.0	81	24.9	0	0	---	0.00	30.368 
23:40	29.7	29.7	29.7	82	24.9	0	0	---	0.00	30.368 
23:45	29.3	29.3	29.3	83	24.8	0	0	---	0.00	30.373 
23:50	29.1	29.1	29.1	84	24.9	0	0	---	0.00	30.373 
23:55	28.8	28.8	28.8	85	24.9	0	0	---	0.00	30.373 

CoCoRaHS
IN-AL-39
A2 Web Hosting
Creative Commons License
GoDaddy
Look for:

loaded 2017-10-17 22:36:58 • last modified 2010-11-18 10:43:29
Privacy PolicyDisclaimer
• wx.awcolley.com is powered by PmWiki v.2002016 •
• all content (unless otherwise noted) © 2017 A W Colley